Time;durP1;ratioP1;P1;durP2;ratioP2;P2;SDS_P1;SDS_P2;PMS_P1;PMS_P2;Temp;Humidity;BMP_temperature;BMP_pressure;BME280_temperature;BME280_humidity;BME280_pressure;Samples;Min_cycle;Max_cycle;Signal;HPM_P1;HPM_P2
2023/08/15 00:01:12;;;;;;;9.38;5.90;;;21.10;99.90;;;;;;5041456;28;20061;-76
2023/08/15 00:03:38;;;;;;;8.88;6.47;;;21.10;99.90;;;;;;5061195;28;20041;-76
2023/08/15 00:06:03;;;;;;;10.40;6.63;;;21.20;99.90;;;;;;5040883;28;20040;-76
2023/08/15 00:08:29;;;;;;;9.52;6.00;;;21.20;99.90;;;;;;5046739;28;20583;-76
2023/08/15 00:10:55;;;;;;;11.30;6.18;;;21.20;99.90;;;;;;5044118;28;20051;-76
2023/08/15 00:13:20;;;;;;;9.73;6.40;;;21.20;99.90;;;;;;5039740;28;20086;-76
2023/08/15 00:15:46;;;;;;;7.30;6.15;;;21.20;99.90;;;;;;5057794;28;20076;-76
2023/08/15 00:18:12;;;;;;;9.80;6.45;;;21.20;99.90;;;;;;5041692;28;20048;-76
2023/08/15 00:20:37;;;;;;;9.27;6.72;;;21.20;99.90;;;;;;5041765;28;20052;-76
2023/08/15 00:23:03;;;;;;;11.57;6.93;;;21.20;99.90;;;;;;5046585;28;20083;-76
2023/08/15 00:25:29;;;;;;;10.85;7.63;;;21.20;99.90;;;;;;5038330;28;20123;-76
2023/08/15 00:27:55;;;;;;;10.00;7.20;;;21.20;99.90;;;;;;5037320;28;20075;-76
2023/08/15 00:30:20;;;;;;;11.57;7.60;;;21.20;99.90;;;;;;5039392;28;20044;-76
2023/08/15 00:32:46;;;;;;;13.73;8.25;;;21.20;99.90;;;;;;5040628;28;20037;-76
2023/08/15 00:35:12;;;;;;;12.30;7.97;;;21.20;99.90;;;;;;5044066;28;20037;-76
2023/08/15 00:37:38;;;;;;;11.65;8.60;;;21.20;99.90;;;;;;5030174;28;20400;-76
2023/08/15 00:40:04;;;;;;;14.00;9.07;;;21.20;99.90;;;;;;5035626;28;20041;-76
2023/08/15 00:42:30;;;;;;;13.07;8.98;;;21.20;99.90;;;;;;5043734;28;20052;-76
2023/08/15 00:44:56;;;;;;;13.63;8.57;;;21.10;99.90;;;;;;5038177;28;20041;-76
2023/08/15 00:47:23;;;;;;;13.02;8.88;;;21.10;99.90;;;;;;5062488;28;20060;-75
2023/08/15 00:49:49;;;;;;;10.48;9.13;;;21.10;99.90;;;;;;5032839;28;20128;-75
2023/08/15 00:52:16;;;;;;;14.85;9.10;;;21.20;99.90;;;;;;5032115;28;20041;-75
2023/08/15 00:54:45;;;;;;;12.27;9.13;;;21.10;99.90;;;;;;5038962;28;20128;-76
2023/08/15 00:57:11;;;;;;;11.85;9.20;;;21.10;99.90;;;;;;5045875;28;20051;-76
2023/08/15 00:59:37;;;;;;;11.85;9.52;;;21.10;99.90;;;;;;5045111;28;20135;-76
2023/08/15 01:02:03;;;;;;;13.80;9.32;;;21.10;99.90;;;;;;5037929;28;20101;-76
2023/08/15 01:04:30;;;;;;;14.90;9.30;;;21.00;99.90;;;;;;5037504;28;20037;-76
2023/08/15 01:06:56;;;;;;;12.23;9.00;;;21.00;99.90;;;;;;5061991;28;20077;-75
2023/08/15 01:09:22;;;;;;;13.35;9.75;;;21.00;99.90;;;;;;5038699;28;20069;-76
2023/08/15 01:11:53;;;;;;;14.85;9.43;;;20.90;99.90;;;;;;5045238;28;20052;-77
2023/08/15 01:14:23;;;;;;;11.80;9.73;;;20.90;99.90;;;;;;5044918;28;20079;-77
2023/08/15 01:16:51;;;;;;;10.85;9.20;;;20.80;99.90;;;;;;5043364;28;20044;-76
2023/08/15 01:19:38;;;;;;;15.05;9.98;;;20.80;99.90;;;;;;5031495;28;20053;-76
2023/08/15 01:22:14;;;;;;;15.02;10.27;;;20.80;99.90;;;;;;5042477;28;20044;-76
2023/08/15 01:24:41;;;;;;;13.02;10.48;;;20.80;99.90;;;;;;5036968;28;20158;-76
2023/08/15 01:27:06;;;;;;;14.13;10.80;;;20.70;99.90;;;;;;5042901;28;20051;-76
2023/08/15 01:29:32;;;;;;;12.73;9.90;;;20.70;99.90;;;;;;5045313;28;20041;-77
2023/08/15 01:32:23;;;;;;;12.13;9.70;;;20.80;99.90;;;;;;5042832;28;20090;-76
2023/08/15 01:35:13;;;;;;;15.82;9.73;;;20.70;99.90;;;;;;5043183;28;20554;-76
2023/08/15 01:37:43;;;;;;;16.25;11.25;;;20.70;99.90;;;;;;5036733;28;20132;-76
2023/08/15 01:40:14;;;;;;;12.52;10.98;;;20.70;99.90;;;;;;5046336;28;20071;-75
2023/08/15 01:42:41;;;;;;;13.10;10.65;;;20.60;99.90;;;;;;5044859;28;20049;-76
2023/08/15 01:45:09;;;;;;;13.45;11.32;;;20.60;99.90;;;;;;5048371;28;20064;-75
2023/08/15 01:47:35;;;;;;;15.82;11.77;;;20.60;99.90;;;;;;5041783;28;20558;-75
2023/08/15 01:50:01;;;;;;;11.73;10.53;;;20.60;99.90;;;;;;5044238;28;20049;-75
2023/08/15 01:52:26;;;;;;;15.48;11.38;;;20.60;99.90;;;;;;5040585;28;20044;-75
2023/08/15 01:54:52;;;;;;;13.38;11.07;;;20.60;99.90;;;;;;5041773;28;20045;-75
2023/08/15 01:57:18;;;;;;;12.88;11.35;;;20.50;99.90;;;;;;5044080;28;20095;-75
2023/08/15 01:59:43;;;;;;;15.77;11.85;;;20.50;99.90;;;;;;5040252;28;20048;-75
2023/08/15 02:02:10;;;;;;;13.65;11.18;;;20.50;99.90;;;;;;5046599;28;20404;-75
2023/08/15 02:04:36;;;;;;;16.77;11.57;;;20.40;99.90;;;;;;5045668;28;20057;-75
2023/08/15 02:07:02;;;;;;;14.88;11.60;;;20.40;99.90;;;;;;5044379;28;20049;-75
2023/08/15 02:09:28;;;;;;;14.82;11.90;;;20.50;99.90;;;;;;5045404;28;20480;-75
2023/08/15 02:11:53;;;;;;;14.02;11.85;;;20.50;99.90;;;;;;5039887;28;20041;-75
2023/08/15 02:14:19;;;;;;;14.43;11.98;;;20.40;99.90;;;;;;5039887;28;20037;-75
2023/08/15 02:16:45;;;;;;;13.50;12.10;;;20.50;99.90;;;;;;5049952;28;20045;-75
2023/08/15 02:19:12;;;;;;;14.93;12.10;;;20.40;99.90;;;;;;5045216;28;20037;-75
2023/08/15 02:21:37;;;;;;;14.07;12.10;;;20.40;99.90;;;;;;5036074;28;20045;-75
2023/08/15 02:24:03;;;;;;;13.98;12.52;;;20.40;99.90;;;;;;5038909;28;20106;-76
2023/08/15 02:26:29;;;;;;;17.80;12.55;;;20.40;99.90;;;;;;5039718;28;20081;-75
2023/08/15 02:28:55;;;;;;;13.85;12.52;;;20.40;99.90;;;;;;5039909;28;20057;-75
2023/08/15 02:31:21;;;;;;;16.27;13.05;;;20.30;99.90;;;;;;5041741;28;20049;-75
2023/08/15 02:33:47;;;;;;;15.32;13.20;;;20.30;99.90;;;;;;5038055;28;20075;-75
2023/08/15 02:36:13;;;;;;;14.73;13.10;;;20.30;99.90;;;;;;5043525;28;20099;-75
2023/08/15 02:38:38;;;;;;;15.40;13.20;;;20.30;99.90;;;;;;5043544;28;20546;-75
2023/08/15 02:41:04;;;;;;;14.57;13.18;;;20.30;99.90;;;;;;5041601;28;20480;-75
2023/08/15 02:43:30;;;;;;;15.98;14.27;;;20.20;99.90;;;;;;5047622;28;20055;-75
2023/08/15 02:45:55;;;;;;;16.23;14.57;;;20.20;99.90;;;;;;5044560;28;20056;-75
2023/08/15 02:48:21;;;;;;;14.80;13.18;;;20.20;99.90;;;;;;5033419;28;20048;-75
2023/08/15 02:50:47;;;;;;;17.08;14.25;;;20.20;99.90;;;;;;5038687;28;20381;-75
2023/08/15 02:53:12;;;;;;;17.67;14.32;;;20.20;99.90;;;;;;5057105;28;20040;-75
2023/08/15 02:55:38;;;;;;;17.50;14.48;;;20.20;99.90;;;;;;5045626;28;20068;-75
2023/08/15 02:58:04;;;;;;;17.25;15.05;;;20.30;99.90;;;;;;5039537;28;20607;-75
2023/08/15 03:00:30;;;;;;;16.55;14.85;;;20.30;99.90;;;;;;5039044;28;20041;-76
2023/08/15 03:02:56;;;;;;;15.90;13.98;;;20.30;99.90;;;;;;5060123;28;20068;-75
2023/08/15 03:05:21;;;;;;;15.73;14.23;;;20.30;99.90;;;;;;5045124;28;20071;-75
2023/08/15 03:07:47;;;;;;;16.00;14.40;;;20.30;99.90;;;;;;5039683;28;20060;-76
2023/08/15 03:10:13;;;;;;;15.90;14.38;;;20.30;99.90;;;;;;5046415;28;20049;-76
2023/08/15 03:12:38;;;;;;;15.48;13.98;;;20.30;99.90;;;;;;5044223;28;20069;-75
2023/08/15 03:15:04;;;;;;;17.25;15.32;;;20.30;99.90;;;;;;5040222;28;20091;-76
2023/08/15 03:17:33;;;;;;;15.95;14.27;;;20.30;99.90;;;;;;5049854;28;20033;-75
2023/08/15 03:19:58;;;;;;;16.27;13.80;;;20.30;99.90;;;;;;5058601;28;20053;-76
2023/08/15 03:22:24;;;;;;;16.45;14.75;;;20.40;99.90;;;;;;5041845;28;20095;-76
2023/08/15 03:24:50;;;;;;;16.30;14.70;;;20.40;99.90;;;;;;5044276;28;20046;-76
2023/08/15 03:27:15;;;;;;;16.00;14.40;;;20.40;99.90;;;;;;5042483;28;20528;-76
2023/08/15 03:29:41;;;;;;;16.38;14.75;;;20.40;99.90;;;;;;5042105;28;20044;-75
2023/08/15 03:32:07;;;;;;;17.60;15.13;;;20.40;99.90;;;;;;5038812;28;20052;-75
2023/08/15 03:34:32;;;;;;;16.80;15.00;;;20.40;99.90;;;;;;5040043;28;20494;-76
2023/08/15 03:36:58;;;;;;;16.55;14.80;;;20.40;99.90;;;;;;5034713;28;20053;-76
2023/08/15 03:39:25;;;;;;;16.67;14.98;;;20.40;99.90;;;;;;5036008;28;20452;-76
2023/08/15 03:41:51;;;;;;;15.77;14.20;;;20.40;99.90;;;;;;5044833;28;20420;-75
2023/08/15 03:44:16;;;;;;;17.02;14.88;;;20.40;99.90;;;;;;5041900;28;20049;-76
2023/08/15 03:46:42;;;;;;;16.83;15.02;;;20.40;99.90;;;;;;5038289;28;20728;-75
2023/08/15 03:49:08;;;;;;;21.05;14.95;;;20.40;99.90;;;;;;5039907;28;20123;-75
2023/08/15 03:51:33;;;;;;;16.52;14.75;;;20.40;99.90;;;;;;5042848;28;20059;-75
2023/08/15 03:53:59;;;;;;;17.02;15.23;;;20.40;99.90;;;;;;5036567;28;20068;-75
2023/08/15 03:56:25;;;;;;;16.05;13.68;;;20.40;99.90;;;;;;5038331;28;20029;-76
2023/08/15 03:58:50;;;;;;;15.95;14.20;;;20.40;99.90;;;;;;5039154;28;20060;-76
2023/08/15 04:01:16;;;;;;;16.73;15.00;;;20.40;99.90;;;;;;5042986;28;20057;-75
2023/08/15 04:03:42;;;;;;;16.52;14.82;;;20.40;99.90;;;;;;5036565;28;20124;-75
2023/08/15 04:06:07;;;;;;;16.13;14.63;;;20.40;99.90;;;;;;5044330;28;20045;-75
2023/08/15 04:08:33;;;;;;;15.40;13.63;;;20.30;99.90;;;;;;5036761;28;20045;-75
2023/08/15 04:11:00;;;;;;;16.85;15.20;;;20.30;99.90;;;;;;5044655;28;20053;-76
2023/08/15 04:13:26;;;;;;;18.38;16.27;;;20.30;99.90;;;;;;5036901;28;20092;-76
2023/08/15 04:15:52;;;;;;;17.05;15.35;;;20.30;99.90;;;;;;5042713;28;20084;-75
2023/08/15 04:18:17;;;;;;;17.17;14.55;;;20.30;99.90;;;;;;5040941;28;21050;-76
2023/08/15 04:20:43;;;;;;;17.73;15.15;;;20.30;99.90;;;;;;5039421;28;20045;-76
2023/08/15 04:23:09;;;;;;;18.63;14.75;;;20.30;99.90;;;;;;5041506;28;20044;-76
2023/08/15 04:25:37;;;;;;;16.50;14.90;;;20.30;99.90;;;;;;5044258;28;20079;-76
2023/08/15 04:28:03;;;;;;;16.40;14.63;;;20.20;99.90;;;;;;5042728;28;20469;-76
2023/08/15 04:30:31;;;;;;;16.63;14.68;;;20.20;99.90;;;;;;5045907;28;20611;-75
2023/08/15 04:33:00;;;;;;;17.30;13.88;;;20.20;99.90;;;;;;5037819;28;20087;-75
2023/08/15 04:35:26;;;;;;;15.20;13.60;;;20.20;99.90;;;;;;5036418;28;20036;-75
2023/08/15 04:37:52;;;;;;;16.55;14.95;;;20.20;99.90;;;;;;5056960;28;20456;-76
2023/08/15 04:40:39;;;;;;;18.55;15.77;;;20.20;99.90;;;;;;5042319;28;20052;-75
2023/08/15 04:43:05;;;;;;;15.75;14.15;;;20.20;99.90;;;;;;5038503;28;20098;-76
2023/08/15 04:45:31;;;;;;;16.98;15.38;;;20.20;99.90;;;;;;5038889;28;20033;-75
2023/08/15 04:47:57;;;;;;;17.90;15.10;;;20.30;99.90;;;;;;5040876;28;20048;-77
2023/08/15 04:50:23;;;;;;;16.38;14.77;;;20.20;99.90;;;;;;5035069;28;20063;-73
2023/08/15 04:52:49;;;;;;;16.67;14.98;;;20.20;99.90;;;;;;5038697;28;20041;-74
2023/08/15 04:55:16;;;;;;;17.45;15.25;;;20.30;99.90;;;;;;5041025;28;20033;-74
2023/08/15 04:57:42;;;;;;;15.73;14.13;;;20.30;99.90;;;;;;5043816;28;20048;-74
2023/08/15 05:00:08;;;;;;;16.13;14.00;;;20.30;99.90;;;;;;5034217;28;20052;-77
2023/08/15 05:02:38;;;;;;;16.30;14.70;;;20.30;99.90;;;;;;5033364;28;20052;-78
2023/08/15 05:05:06;;;;;;;16.02;13.63;;;20.30;99.90;;;;;;5033506;28;20060;-77
2023/08/15 05:07:32;;;;;;;16.67;13.63;;;20.30;99.90;;;;;;5044543;28;20048;-78
2023/08/15 05:09:58;;;;;;;16.42;14.82;;;20.30;99.90;;;;;;5053373;28;20064;-77
2023/08/15 05:12:24;;;;;;;15.05;13.55;;;20.40;99.90;;;;;;5040351;28;20474;-78
2023/08/15 05:14:50;;;;;;;15.40;13.85;;;20.40;99.90;;;;;;5045417;28;20037;-77
2023/08/15 05:17:15;;;;;;;16.45;14.07;;;20.40;99.90;;;;;;5046635;28;20075;-77
2023/08/15 05:19:41;;;;;;;15.13;13.55;;;20.40;99.90;;;;;;5053176;28;21317;-77
2023/08/15 05:22:07;;;;;;;18.08;14.98;;;20.40;99.90;;;;;;5040050;28;20037;-77
2023/08/15 05:24:32;;;;;;;15.90;13.43;;;20.50;99.90;;;;;;5047247;28;20124;-77
2023/08/15 05:26:58;;;;;;;15.50;13.90;;;20.50;99.90;;;;;;5043000;28;20411;-77
2023/08/15 05:29:24;;;;;;;17.70;14.15;;;20.60;99.90;;;;;;5043179;28;20036;-74
2023/08/15 05:31:51;;;;;;;16.70;14.38;;;20.50;99.90;;;;;;5040431;28;20052;-77
2023/08/15 05:34:17;;;;;;;14.95;13.43;;;20.50;99.90;;;;;;5040247;28;20032;-77
2023/08/15 05:36:42;;;;;;;18.85;13.38;;;20.60;99.90;;;;;;5055799;28;20387;-76
2023/08/15 05:39:08;;;;;;;16.70;15.00;;;20.50;99.90;;;;;;5046447;28;20144;-84
2023/08/15 05:41:34;;;;;;;16.40;14.27;;;20.50;99.90;;;;;;5042352;28;20045;-81
2023/08/15 05:44:00;;;;;;;16.70;14.38;;;20.50;99.90;;;;;;5046446;28;20164;-78
2023/08/15 05:46:25;;;;;;;18.23;14.70;;;20.50;99.90;;;;;;5047854;28;20049;-77
2023/08/15 05:48:51;;;;;;;15.18;13.45;;;20.50;99.90;;;;;;5050581;28;20033;-79
2023/08/15 05:51:17;;;;;;;16.35;13.98;;;20.50;99.90;;;;;;5048839;28;20505;-79
2023/08/15 05:53:42;;;;;;;16.02;13.75;;;20.50;99.90;;;;;;5052083;28;20041;-77
2023/08/15 05:56:08;;;;;;;16.45;14.30;;;20.50;99.90;;;;;;5041189;28;20123;-76
2023/08/15 05:58:34;;;;;;;19.13;13.77;;;20.50;99.90;;;;;;5047282;28;20059;-76
2023/08/15 06:00:59;;;;;;;19.17;13.20;;;20.40;99.90;;;;;;5040588;28;20048;-76
2023/08/15 06:03:25;;;;;;;13.85;12.35;;;20.50;99.90;;;;;;5047856;28;20041;-78
2023/08/15 06:05:50;;;;;;;18.27;12.52;;;20.40;99.90;;;;;;5039692;28;20124;-73
2023/08/15 06:08:16;;;;;;;13.43;12.02;;;20.50;99.90;;;;;;5046195;28;20028;-77
2023/08/15 06:10:42;;;;;;;16.25;11.52;;;20.40;99.90;;;;;;5042237;28;20074;-76
2023/08/15 06:13:07;;;;;;;15.15;11.55;;;20.40;99.90;;;;;;5052073;28;20029;-75
2023/08/15 06:15:33;;;;;;;14.68;11.07;;;20.40;99.90;;;;;;5045795;28;20450;-75
2023/08/15 06:17:59;;;;;;;15.63;12.05;;;20.40;99.90;;;;;;5039484;28;20049;-75
2023/08/15 06:20:25;;;;;;;14.90;11.48;;;20.30;99.90;;;;;;5050736;28;20043;-75
2023/08/15 06:22:50;;;;;;;14.32;11.77;;;20.30;99.90;;;;;;5051805;28;20041;-75
2023/08/15 06:25:16;;;;;;;14.20;11.25;;;20.30;99.90;;;;;;5047656;28;20179;-75
2023/08/15 06:27:42;;;;;;;17.10;12.07;;;20.20;99.90;;;;;;5051713;28;20387;-75
2023/08/15 06:30:08;;;;;;;13.73;10.77;;;20.20;99.90;;;;;;5051667;28;20044;-75
2023/08/15 06:32:34;;;;;;;18.58;10.85;;;20.20;99.90;;;;;;5046523;28;20045;-75
2023/08/15 06:35:03;;;;;;;12.65;10.45;;;20.20;99.90;;;;;;5039083;28;20053;-75
2023/08/15 06:37:29;;;;;;;14.27;11.40;;;20.20;99.90;;;;;;5051940;28;20412;-75
2023/08/15 06:39:54;;;;;;;14.30;10.27;;;20.20;99.90;;;;;;5050010;28;20067;-75
2023/08/15 06:42:20;;;;;;;15.55;10.02;;;20.20;99.90;;;;;;5052058;28;20459;-75
2023/08/15 06:44:46;;;;;;;13.55;9.80;;;20.30;99.90;;;;;;5049659;28;20045;-75
2023/08/15 06:47:11;;;;;;;13.52;10.23;;;20.20;99.90;;;;;;5050937;28;20041;-75
2023/08/15 06:49:38;;;;;;;13.02;10.38;;;20.20;99.90;;;;;;5051579;28;20147;-75
2023/08/15 06:52:04;;;;;;;13.13;9.38;;;20.30;99.90;;;;;;5038701;28;20048;-75
2023/08/15 06:54:30;;;;;;;13.25;10.30;;;20.20;99.90;;;;;;5043979;28;20507;-75
2023/08/15 06:56:56;;;;;;;13.30;9.40;;;20.20;99.90;;;;;;5049670;28;20076;-75
2023/08/15 06:59:23;;;;;;;16.38;10.20;;;20.30;99.90;;;;;;5050685;28;20076;-75
2023/08/15 07:01:57;;;;;;;13.38;10.10;;;20.30;99.90;;;;;;5046927;28;20061;-75
2023/08/15 07:04:23;;;;;;;13.65;9.35;;;20.40;99.90;;;;;;5038047;28;20041;-75
2023/08/15 07:06:50;;;;;;;14.70;8.75;;;20.50;99.90;;;;;;5049121;28;20048;-75
2023/08/15 07:09:16;;;;;;;12.82;8.43;;;20.50;99.90;;;;;;5051320;28;20047;-75
2023/08/15 07:11:41;;;;;;;12.60;8.07;;;20.70;99.90;;;;;;5051208;28;20561;-75
2023/08/15 07:14:07;;;;;;;15.55;8.18;;;20.60;99.90;;;;;;5048849;28;20084;-76
2023/08/15 07:16:32;;;;;;;12.43;7.50;;;20.70;99.90;;;;;;5048171;28;20532;-76
2023/08/15 07:18:58;;;;;;;12.88;8.13;;;20.70;99.90;;;;;;5050066;28;20108;-76
2023/08/15 07:21:24;;;;;;;12.57;7.88;;;20.80;99.90;;;;;;5044638;28;20045;-76
2023/08/15 07:23:50;;;;;;;16.27;8.10;;;20.90;99.90;;;;;;5039161;28;20045;-77
2023/08/15 07:26:16;;;;;;;16.05;8.32;;;20.90;99.90;;;;;;5049471;28;20476;-76
2023/08/15 07:28:41;;;;;;;14.38;7.78;;;21.00;99.90;;;;;;5065241;28;20051;-76
2023/08/15 07:31:07;;;;;;;12.50;7.40;;;21.00;99.90;;;;;;5060403;28;20047;-76
2023/08/15 07:33:33;;;;;;;15.40;7.25;;;21.10;99.90;;;;;;5039087;28;20044;-76
2023/08/15 07:35:58;;;;;;;15.95;7.53;;;21.20;99.90;;;;;;5050035;28;20037;-76
2023/08/15 07:38:24;;;;;;;11.20;6.55;;;21.20;99.90;;;;;;5066020;28;20472;-75
2023/08/15 07:40:50;;;;;;;10.07;6.07;;;21.30;99.90;;;;;;5049150;28;20045;-76
2023/08/15 07:43:15;;;;;;;10.52;6.30;;;21.30;99.90;;;;;;5049338;28;20090;-76
2023/08/15 07:45:41;;;;;;;9.15;6.45;;;21.40;99.90;;;;;;5057453;28;20259;-76
2023/08/15 07:48:07;;;;;;;13.65;6.68;;;21.40;99.90;;;;;;5047897;28;20459;-76
2023/08/15 07:50:32;;;;;;;12.07;6.25;;;21.40;99.90;;;;;;5043423;28;20037;-76
2023/08/15 07:52:59;;;;;;;12.90;6.43;;;21.50;99.90;;;;;;5039693;28;20045;-76
2023/08/15 07:55:27;;;;;;;12.13;6.72;;;21.50;99.90;;;;;;5050331;28;20391;-76
2023/08/15 07:57:53;;;;;;;10.75;6.00;;;21.60;99.90;;;;;;5050972;28;20488;-76
2023/08/15 08:00:18;;;;;;;10.50;5.78;;;21.70;99.90;;;;;;5053198;28;20514;-76
2023/08/15 08:02:45;;;;;;;11.80;5.63;;;21.70;99.90;;;;;;5047168;28;20128;-76
2023/08/15 08:05:14;;;;;;;9.93;5.30;;;21.80;99.90;;;;;;5049604;28;20048;-75
2023/08/15 08:07:42;;;;;;;11.57;5.82;;;21.90;99.90;;;;;;5037407;28;20087;-74
2023/08/15 08:10:07;;;;;;;;;;;21.90;99.90;;;;;;5048483;28;20095;-75
2023/08/15 08:12:33;;;;;;;11.53;5.57;;;21.90;99.90;;;;;;5048417;28;19924;-75
2023/08/15 08:14:59;;;;;;;10.50;5.07;;;22.10;99.90;;;;;;5048988;28;20134;-75
2023/08/15 08:17:26;;;;;;;12.27;4.70;;;22.20;99.90;;;;;;5042890;28;20532;-75
2023/08/15 08:19:52;;;;;;;11.63;4.95;;;22.30;99.90;;;;;;5047917;28;20487;-75
2023/08/15 08:22:18;;;;;;;10.38;4.50;;;22.30;99.90;;;;;;5050159;28;20036;-75
2023/08/15 08:24:43;;;;;;;10.48;4.72;;;22.40;99.90;;;;;;5064083;28;20082;-77
2023/08/15 08:27:09;;;;;;;9.07;4.85;;;22.50;99.90;;;;;;5049705;28;20439;-77
2023/08/15 08:29:35;;;;;;;8.48;4.90;;;22.50;99.90;;;;;;5044464;28;20083;-77
2023/08/15 08:32:00;;;;;;;11.43;5.90;;;22.60;99.90;;;;;;5047525;28;20204;-77
2023/08/15 08:34:26;;;;;;;11.70;5.22;;;22.60;99.90;;;;;;5048359;28;20116;-77
2023/08/15 08:36:52;;;;;;;9.93;5.30;;;22.70;99.90;;;;;;5048649;28;20041;-79
2023/08/15 08:39:18;;;;;;;12.38;5.47;;;22.70;99.90;;;;;;5048694;28;20083;-78
2023/08/15 08:41:44;;;;;;;10.57;5.00;;;22.80;99.90;;;;;;5049440;28;20060;-79
2023/08/15 08:44:12;;;;;;;7.90;4.30;;;22.90;99.90;;;;;;5046682;28;20044;-78
2023/08/15 08:46:39;;;;;;;8.15;3.83;;;23.00;99.90;;;;;;5041140;28;20151;-78
2023/08/15 08:49:08;;;;;;;7.40;3.78;;;22.90;99.90;;;;;;5046861;28;20073;-78
2023/08/15 08:51:34;;;;;;;8.85;3.53;;;22.90;99.90;;;;;;5052914;28;20053;-78
2023/08/15 08:54:00;;;;;;;8.98;3.58;;;22.90;99.90;;;;;;5053586;28;20049;-77
2023/08/15 08:56:29;;;;;;;8.80;3.92;;;23.00;99.90;;;;;;5053600;28;20094;-77
2023/08/15 08:59:01;;;;;;;9.65;3.85;;;22.90;99.90;;;;;;5049762;28;20086;-78
2023/08/15 09:01:31;;;;;;;7.85;3.47;;;22.90;99.90;;;;;;5051260;28;20045;-78
2023/08/15 09:03:57;;;;;;;10.63;4.28;;;22.80;99.90;;;;;;5052093;28;20068;-77
2023/08/15 09:06:26;;;;;;;8.80;4.20;;;22.70;99.90;;;;;;5044617;28;20079;-77
2023/08/15 09:08:57;;;;;;;15.63;4.85;;;22.60;99.90;;;;;;5044507;28;20044;-75
2023/08/15 09:11:23;;;;;;;10.75;4.88;;;22.60;99.90;;;;;;5044882;28;20033;-83
2023/08/15 09:13:50;;;;;;;7.95;4.78;;;22.60;99.90;;;;;;5051675;28;20044;-82
2023/08/15 09:16:16;;;;;;;10.10;5.53;;;22.60;99.90;;;;;;5051325;28;20045;-79
2023/08/15 09:18:43;;;;;;;10.23;5.85;;;22.60;99.90;;;;;;5051715;28;20094;-81
2023/08/15 09:21:12;;;;;;;11.07;6.65;;;22.50;99.90;;;;;;5045926;28;20072;-81
2023/08/15 09:23:41;;;;;;;11.13;6.28;;;22.50;99.90;;;;;;5050881;28;20488;-81
2023/08/15 09:26:14;;;;;;;12.77;6.38;;;22.50;99.90;;;;;;5044804;28;20114;-77
2023/08/15 09:28:44;;;;;;;12.05;6.22;;;22.50;99.90;;;;;;5045555;28;20094;-76
2023/08/15 09:31:11;;;;;;;11.05;5.97;;;22.50;99.90;;;;;;5054499;28;20056;-79
2023/08/15 09:33:37;;;;;;;10.55;6.07;;;22.50;99.90;;;;;;5047194;28;20049;-81
2023/08/15 09:36:08;;;;;;;10.63;5.32;;;22.50;99.90;;;;;;5050652;28;20077;-80
2023/08/15 09:38:38;;;;;;;12.40;6.35;;;22.50;99.90;;;;;;5051657;28;20052;-79
2023/08/15 09:41:05;;;;;;;9.95;5.72;;;22.50;99.90;;;;;;5045648;28;20053;-79
2023/08/15 09:43:32;;;;;;;10.52;5.65;;;22.50;99.90;;;;;;5047962;28;20248;-82
2023/08/15 09:45:59;;;;;;;9.27;5.25;;;22.50;99.90;;;;;;5048297;28;20094;-77
2023/08/15 09:48:28;;;;;;;12.48;5.20;;;22.50;99.90;;;;;;5050369;28;20044;-80
2023/08/15 09:50:56;;;;;;;9.02;5.03;;;22.50;99.90;;;;;;5050059;28;20044;-85
2023/08/15 09:53:25;;;;;;;12.10;5.07;;;22.70;99.90;;;;;;5055469;28;20437;-81
2023/08/15 09:55:51;;;;;;;8.80;4.43;;;22.90;99.90;;;;;;5043039;28;20041;-77
2023/08/15 09:58:18;;;;;;;11.43;4.75;;;23.00;99.90;;;;;;5031894;28;20147;-80
2023/08/15 10:00:49;;;;;;;10.38;4.07;;;23.10;99.90;;;;;;5046308;28;20119;-77
2023/08/15 10:03:31;;;;;;;10.50;4.57;;;23.20;99.90;;;;;;5042014;28;20048;-79
2023/08/15 10:05:59;;;;;;;8.82;4.00;;;23.20;99.90;;;;;;5047192;28;20049;-76
2023/08/15 10:08:25;;;;;;;8.57;4.60;;;23.30;99.90;;;;;;5051407;28;20044;-78
2023/08/15 10:10:53;;;;;;;8.20;4.05;;;23.40;99.90;;;;;;5041880;28;20073;-80
2023/08/15 10:13:26;;;;;;;13.82;5.50;;;23.40;99.90;;;;;;5044318;28;20103;-77
2023/08/15 10:15:53;;;;;;;9.55;4.07;;;23.50;99.90;;;;;;5045267;28;20052;-77
2023/08/15 10:18:19;;;;;;;8.90;3.95;;;23.60;99.90;;;;;;5044789;28;20111;-80
2023/08/15 10:20:50;;;;;;;8.32;3.58;;;23.60;99.90;;;;;;5039888;28;20508;-81
2023/08/15 10:23:25;;;;;;;8.60;3.35;;;23.70;99.90;;;;;;5041693;28;20102;-79
2023/08/15 10:25:53;;;;;;;7.13;2.95;;;23.80;99.90;;;;;;5044059;28;20053;-79
2023/08/15 10:28:18;;;;;;;;;;;23.70;99.90;;;;;;5038910;28;20114;-80
2023/08/15 10:30:46;;;;;;;6.00;2.60;;;23.70;99.90;;;;;;5050491;28;19921;-80
2023/08/15 10:33:12;;;;;;;5.93;2.60;;;23.80;99.90;;;;;;5065546;28;20056;-80
2023/08/15 10:35:54;;;;;;;7.57;2.83;;;23.80;99.90;;;;;;5047337;28;20408;-80
2023/08/15 10:38:27;;;;;;;7.53;2.45;;;23.90;99.90;;;;;;5043443;28;20090;-83
2023/08/15 10:41:27;;;;;;;7.40;2.70;;;23.90;99.90;;;;;;5047378;28;20127;-81
2023/08/15 10:43:59;;;;;;;8.05;3.17;;;24.00;99.90;;;;;;5034317;28;20122;-78
2023/08/15 10:46:29;;;;;;;9.13;3.95;;;24.00;99.90;;;;;;5049937;28;20099;-78
2023/08/15 10:49:09;;;;;;;9.05;3.45;;;24.00;99.90;;;;;;5035160;28;20049;-81
2023/08/15 10:51:39;;;;;;;6.95;2.78;;;23.90;99.90;;;;;;5048062;28;20053;-82
2023/08/15 10:54:06;;;;;;;7.65;3.13;;;23.90;99.90;;;;;;5047355;28;20053;-83
2023/08/15 10:56:37;;;;;;;5.50;2.70;;;24.00;99.90;;;;;;5042516;28;20041;-82
2023/08/15 10:59:17;;;;;;;7.80;3.17;;;24.10;99.90;;;;;;5043541;28;20049;-82
2023/08/15 11:01:46;;;;;;;8.98;3.25;;;24.10;99.90;;;;;;5047141;28;20047;-80
2023/08/15 11:04:16;;;;;;;7.45;3.30;;;24.20;99.90;;;;;;5048949;28;20045;-83
2023/08/15 11:06:52;;;;;;;7.28;3.05;;;24.20;99.90;;;;;;5049605;28;20041;-82
2023/08/15 11:09:18;;;;;;;7.93;3.40;;;24.10;99.90;;;;;;5043477;28;20048;-81
2023/08/15 11:11:44;;;;;;;5.78;2.97;;;24.10;99.90;;;;;;5045857;28;20495;-79
2023/08/15 11:14:19;;;;;;;7.40;2.80;;;24.20;99.90;;;;;;5039521;28;20131;-80
2023/08/15 11:16:46;;;;;;;6.72;3.15;;;24.30;99.90;;;;;;5046922;28;20167;-85
2023/08/15 11:19:15;;;;;;;6.28;2.88;;;24.30;99.90;;;;;;5041236;28;20147;-74
2023/08/15 11:21:41;;;;;;;8.10;2.95;;;24.30;99.90;;;;;;5064403;28;20045;-75
2023/08/15 11:24:07;;;;;;;8.38;3.20;;;24.20;99.90;;;;;;5044269;28;20504;-75
2023/08/15 11:26:32;;;;;;;8.02;3.42;;;24.30;99.90;;;;;;5048979;28;20055;-75
2023/08/15 11:28:58;;;;;;;7.75;3.25;;;24.30;99.90;;;;;;5061569;28;20395;-75
2023/08/15 11:31:24;;;;;;;5.07;2.53;;;24.30;99.90;;;;;;5040073;28;20496;-75
2023/08/15 11:33:53;;;;;;;7.60;2.97;;;24.30;99.90;;;;;;5039662;28;20106;-75
2023/08/15 11:36:20;;;;;;;5.90;2.60;;;24.40;99.90;;;;;;5040351;28;20436;-75
2023/08/15 11:38:45;;;;;;;6.00;2.88;;;24.50;99.90;;;;;;5060641;28;20454;-74
2023/08/15 11:41:11;;;;;;;6.40;2.90;;;24.50;99.90;;;;;;5046463;28;20067;-75
2023/08/15 11:43:37;;;;;;;8.93;3.57;;;24.60;99.90;;;;;;5049044;28;20052;-71
2023/08/15 11:46:04;;;;;;;7.35;3.28;;;24.60;99.90;;;;;;5044730;28;20414;-72
2023/08/15 11:48:34;;;;;;;8.60;3.10;;;24.70;99.90;;;;;;5046711;28;20453;-70
2023/08/15 11:51:01;;;;;;;8.90;2.90;;;24.80;99.90;;;;;;5042390;28;20106;-70
2023/08/15 11:53:26;;;;;;;;;;;24.90;99.90;;;;;;5042083;28;20037;-75
2023/08/15 11:55:53;;;;;;;7.05;2.92;;;25.00;99.90;;;;;;5042107;28;19927;-76
2023/08/15 11:58:26;;;;;;;6.05;2.85;;;25.10;99.90;;;;;;5047251;28;20048;-77
2023/08/15 12:00:54;;;;;;;7.20;2.70;;;25.10;99.90;;;;;;5047253;28;20037;-78
2023/08/15 12:03:20;;;;;;;6.65;2.80;;;25.20;99.90;;;;;;5043904;28;20045;-75
2023/08/15 12:05:49;;;;;;;7.38;2.60;;;25.20;99.90;;;;;;5048923;28;20048;-75
2023/08/15 12:08:16;;;;;;;8.10;2.80;;;25.20;99.90;;;;;;5043789;28;20412;-75
2023/08/15 12:10:43;;;;;;;8.48;3.35;;;25.30;99.90;;;;;;5043618;28;20049;-75
2023/08/15 12:13:09;;;;;;;6.97;2.63;;;25.30;99.90;;;;;;5040145;28;20048;-75
2023/08/15 12:15:35;;;;;;;18.17;7.70;;;25.20;99.90;;;;;;5041125;28;20045;-75
2023/08/15 12:18:00;;;;;;;8.40;3.40;;;25.20;99.90;;;;;;5037773;28;20639;-75
2023/08/15 12:20:26;;;;;;;11.07;4.63;;;25.30;99.90;;;;;;5046843;28;20041;-75
2023/08/15 12:22:52;;;;;;;14.50;4.70;;;25.40;99.90;;;;;;5047228;28;20078;-74
2023/08/15 12:25:18;;;;;;;9.40;4.70;;;25.40;99.90;;;;;;5043805;28;20506;-75
2023/08/15 12:27:44;;;;;;;6.53;2.90;;;25.50;99.90;;;;;;5040361;28;20135;-76
2023/08/15 12:30:10;;;;;;;5.07;2.73;;;25.50;99.90;;;;;;5045543;28;20303;-76
2023/08/15 12:32:35;;;;;;;6.73;3.20;;;25.50;99.90;;;;;;5055925;28;20118;-76
2023/08/15 12:35:01;;;;;;;7.87;3.10;;;25.50;99.90;;;;;;5036596;28;20068;-76